Flight Track Log - Related Links

Times and Time Zones

All times are in EDT time to prevent confusion due to time zone crossing. See the AKX1813 flight status page for this flight to view local times or setup timezone preferences in your user account.

Time Position Orientation Groundspeed Altitude Reporting Facility
EDT Latitude Longitude Course Direction KTS MPH feet Rate Location/Type
Sun 05:26:32 AM 34.9010 136.8357 30° Northeast  Level Estimated
Sun 05:27:32 AM 34.9809 136.8929 30° Northeast  Level Estimated
Sun 05:28:32 AM 35.0608 136.9502 30° Northeast  Level Estimated
Sun 05:29:32 AM 35.1407 137.0076 30° Northeast  Level Estimated
Sun 05:30:32 AM 35.2206 137.0651 30° Northeast  Level Estimated
Sun 05:31:32 AM 35.3004 137.1228 31° Northeast  Level Estimated
Sun 05:32:32 AM 35.3803 137.1805 31° Northeast  Level Estimated
Sun 05:33:32 AM 35.4600 137.2384 31° Northeast  Level Estimated
Sun 05:34:32 AM 35.5398 137.2963 31° Northeast  Level Estimated
Sun 05:35:32 AM 35.6195 137.3544 31° Northeast  Level Estimated
Sun 05:36:32 AM 35.6992 137.4126 31° Northeast  Level Estimated
Sun 05:37:32 AM 35.7789 137.4709 31° Northeast  Level Estimated
Sun 05:38:32 AM 35.8586 137.5294 31° Northeast  Level Estimated
Sun 05:39:32 AM 35.9382 137.5880 31° Northeast  Level Estimated
Sun 05:40:32 AM 36.0178 137.6466 31° Northeast  Level Estimated
Sun 05:41:32 AM 36.0973 137.7054 31° Northeast  Level Estimated
Sun 05:42:32 AM 36.1769 137.7643 31° Northeast  Level Estimated
Sun 05:43:32 AM 36.2564 137.8234 31° Northeast  Level Estimated
Sun 05:44:32 AM 36.3358 137.8825 31° Northeast  Level Estimated
Sun 05:45:32 AM 36.4153 137.9418 31° Northeast  Level Estimated
Sun 05:46:32 AM 36.4947 138.0012 31° Northeast  Level Estimated
Sun 05:47:32 AM 36.5741 138.0607 31° Northeast  Level Estimated
Sun 05:48:32 AM 36.6534 138.1204 31° Northeast  Level Estimated
Sun 05:49:32 AM 36.7328 138.1801 31° Northeast  Level Estimated
Sun 05:50:32 AM 36.8121 138.2400 31° Northeast  Level Estimated
Sun 05:51:32 AM 36.8913 138.3000 31° Northeast  Level Estimated
Sun 05:52:32 AM 36.9706 138.3602 31° Northeast  Level Estimated
Sun 05:53:32 AM 37.0498 138.4205 31° Northeast  Level Estimated
Sun 05:54:32 AM 37.1289 138.4808 31° Northeast  Level Estimated
Sun 05:55:32 AM 37.2081 138.5414 31° Northeast  Level Estimated
Sun 05:56:32 AM 37.2872 138.6020 31° Northeast  Level Estimated
Sun 05:57:32 AM 37.3663 138.6628 31° Northeast  Level Estimated
Sun 05:58:32 AM 37.4453 138.7237 31° Northeast  Level Estimated
Sun 05:59:32 AM 37.5243 138.7847 32° Northeast  Level Estimated
Sun 06:00:32 AM 37.6033 138.8458 32° Northeast  Level Estimated
Sun 06:01:32 AM 37.6823 138.9071 32° Northeast  Level Estimated
Sun 06:02:32 AM 37.7612 138.9686 32° Northeast  Level Estimated
Sun 06:03:32 AM 37.8401 139.0301 32° Northeast  Level Estimated
Sun 06:04:32 AM 37.9190 139.0918 32° Northeast  Level Estimated
Sun 06:05:32 AM 37.9978 139.1536 212° Southwest  Level Estimated
Sun 06:06:32 AM 37.9190 139.0918 32° Northeast  Level Estimated
Sun 06:07:32 AM 37.9978 139.1536 212° Southwest  Level Estimated
Sun 06:08:32 AM 37.9190 139.0918 212° Southwest  Level Estimated

Login

Don't have an account? Register now (free) for customized features, flight alerts, and more!